Time;durP1;ratioP1;P1;durP2;ratioP2;P2;SDS_P1;SDS_P2;PMS_P1;PMS_P2;Temp;Humidity;BMP_temperature;BMP_pressure;BME280_temperature;BME280_humidity;BME280_pressure;Samples;Min_cycle;Max_cycle;Signal;HPM_P1;HPM_P2
2024/01/20 00:00:59;;;;;;;33.03;15.35;;;0.40;99.90;;;;;;4156605;28;20391;-72
2024/01/20 00:03:00;;;;;;;36.28;17.20;;;0.40;99.90;;;;;;4137258;28;20034;-71
2024/01/20 00:05:01;;;;;;;37.13;16.20;;;0.40;99.90;;;;;;4158886;28;20042;-71
2024/01/20 00:07:02;;;;;;;31.05;15.25;;;0.40;99.90;;;;;;4154629;28;20052;-71
2024/01/20 00:09:03;;;;;;;37.63;17.90;;;0.40;99.90;;;;;;4135939;28;20025;-72
2024/01/20 00:11:04;;;;;;;34.20;16.20;;;0.40;99.90;;;;;;4149767;28;20037;-72
2024/01/20 00:13:04;;;;;;;38.03;15.88;;;0.40;99.90;;;;;;4156586;28;20403;-72
2024/01/20 00:15:07;;;;;;;35.42;16.63;;;0.40;99.90;;;;;;4151668;28;20033;-73
2024/01/20 00:17:08;;;;;;;35.35;15.18;;;0.30;99.90;;;;;;4134890;28;20046;-71
2024/01/20 00:19:08;;;;;;;30.23;14.65;;;0.30;99.90;;;;;;4136947;28;20044;-71
2024/01/20 00:21:09;;;;;;;36.03;15.23;;;0.40;99.90;;;;;;4154401;28;20049;-73
2024/01/20 00:23:10;;;;;;;35.05;14.90;;;0.30;99.90;;;;;;4156492;28;20387;-71
2024/01/20 00:25:10;;;;;;;31.50;15.88;;;0.40;99.90;;;;;;4155304;28;20176;-72
2024/01/20 00:27:11;;;;;;;33.25;14.55;;;0.30;99.90;;;;;;4156669;28;20099;-71
2024/01/20 00:29:11;;;;;;;32.67;15.13;;;0.30;99.90;;;;;;4156512;28;20033;-72
2024/01/20 00:31:12;;;;;;;36.53;15.70;;;0.30;99.90;;;;;;4157303;28;20041;-72
2024/01/20 00:33:13;;;;;;;33.25;14.35;;;0.30;99.90;;;;;;4135007;28;20684;-72
2024/01/20 00:35:13;;;;;;;29.83;14.80;;;0.30;99.90;;;;;;4156953;28;20133;-73
2024/01/20 00:37:14;;;;;;;30.45;14.07;;;0.20;99.90;;;;;;4157479;28;20175;-73
2024/01/20 00:39:14;;;;;;;33.65;16.00;;;0.30;99.90;;;;;;4159067;28;20033;-72
2024/01/20 00:41:15;;;;;;;33.55;15.00;;;0.30;99.90;;;;;;4154057;28;20576;-71
2024/01/20 00:43:16;;;;;;;32.22;15.00;;;0.30;99.90;;;;;;4159129;28;20033;-70
2024/01/20 00:45:16;;;;;;;34.80;15.63;;;0.30;99.90;;;;;;4157443;28;20060;-70
2024/01/20 00:47:17;;;;;;;37.53;15.88;;;0.30;99.90;;;;;;4158011;28;20540;-71
2024/01/20 00:49:17;;;;;;;33.65;15.70;;;0.30;99.90;;;;;;4157317;28;20111;-71
2024/01/20 00:51:18;;;;;;;36.60;16.08;;;0.30;99.90;;;;;;4138297;28;20046;-74
2024/01/20 00:53:19;;;;;;;35.17;16.25;;;0.30;99.90;;;;;;4158322;28;20537;-76
2024/01/20 00:55:20;;;;;;;56.47;17.02;;;0.30;99.90;;;;;;4157613;28;20030;-73
2024/01/20 00:57:20;;;;;;;32.45;15.90;;;0.30;99.90;;;;;;4156534;28;20046;-76
2024/01/20 00:59:21;;;;;;;34.67;15.63;;;0.30;99.90;;;;;;4158646;28;20029;-75
2024/01/20 01:01:21;;;;;;;39.60;17.75;;;0.30;99.90;;;;;;4156124;28;20036;-74
2024/01/20 01:03:22;;;;;;;35.80;15.40;;;0.30;99.90;;;;;;4157128;28;20351;-75
2024/01/20 01:05:23;;;;;;;34.53;14.60;;;0.20;99.90;;;;;;4158496;28;20042;-76
2024/01/20 01:07:23;;;;;;;36.63;15.27;;;0.20;99.90;;;;;;4157319;28;20602;-75
2024/01/20 01:09:24;;;;;;;33.53;14.75;;;0.30;99.90;;;;;;4159823;28;20111;-75
2024/01/20 01:11:25;;;;;;;34.83;15.45;;;0.30;99.90;;;;;;4141226;28;20042;-73
2024/01/20 01:13:25;;;;;;;33.92;15.10;;;0.30;99.90;;;;;;4160044;28;20033;-76
2024/01/20 01:15:26;;;;;;;29.90;15.27;;;0.30;99.90;;;;;;4157671;28;20120;-75
2024/01/20 01:17:26;;;;;;;33.42;15.55;;;0.40;99.90;;;;;;4157355;28;20102;-74
2024/01/20 01:19:27;;;;;;;37.00;16.02;;;0.30;99.90;;;;;;4159091;28;20470;-75
2024/01/20 01:21:28;;;;;;;30.98;14.63;;;0.30;99.90;;;;;;4157597;28;20034;-75
2024/01/20 01:23:28;;;;;;;40.50;16.63;;;0.40;99.90;;;;;;4141207;28;20064;-75
2024/01/20 01:25:29;;;;;;;31.70;14.77;;;0.40;99.90;;;;;;4158870;28;20064;-76
2024/01/20 01:27:30;;;;;;;36.20;15.27;;;0.40;99.90;;;;;;4159063;28;20607;-75
2024/01/20 01:29:30;;;;;;;32.30;14.95;;;0.40;99.90;;;;;;4156006;28;20060;-75
2024/01/20 01:31:31;;;;;;;33.13;14.77;;;0.40;99.90;;;;;;4159046;28;20037;-76
2024/01/20 01:33:32;;;;;;;37.15;17.17;;;0.40;99.90;;;;;;4159653;28;20037;-76
2024/01/20 01:35:32;;;;;;;40.67;17.67;;;0.40;99.90;;;;;;4157248;28;20335;-75
2024/01/20 01:37:33;;;;;;;36.92;16.30;;;0.40;99.90;;;;;;4157627;28;20033;-77
2024/01/20 01:39:34;;;;;;;33.88;15.02;;;0.40;99.90;;;;;;4159377;28;20116;-76
2024/01/20 01:41:35;;;;;;;36.97;16.27;;;0.40;99.90;;;;;;4158814;28;20053;-75
2024/01/20 01:43:35;;;;;;;33.85;16.08;;;0.30;99.90;;;;;;4125982;28;20034;-75
2024/01/20 01:45:36;;;;;;;39.40;17.17;;;0.40;99.90;;;;;;4154720;28;20548;-75
2024/01/20 01:47:37;;;;;;;35.70;16.60;;;0.40;99.90;;;;;;4139906;28;20435;-76
2024/01/20 01:49:37;;;;;;;36.38;16.52;;;0.40;99.90;;;;;;4159637;28;20041;-75
2024/01/20 01:51:39;;;;;;;34.20;16.45;;;0.40;99.90;;;;;;4154785;28;20410;-71
2024/01/20 01:53:40;;;;;;;34.90;15.95;;;0.50;99.90;;;;;;4156379;28;20056;-71
2024/01/20 01:55:43;;;;;;;35.72;16.40;;;0.50;99.90;;;;;;4158735;28;20033;-72
2024/01/20 01:57:45;;;;;;;38.38;16.48;;;0.50;99.90;;;;;;4139220;28;20633;-72
2024/01/20 01:59:46;;;;;;;36.00;16.77;;;0.50;99.90;;;;;;4159576;28;20060;-72
2024/01/20 02:01:46;;;;;;;34.50;16.45;;;0.40;99.90;;;;;;4158332;28;20414;-70
2024/01/20 02:03:48;;;;;;;35.15;15.98;;;0.40;99.90;;;;;;4155162;28;20043;-70
2024/01/20 02:05:48;;;;;;;39.40;17.23;;;0.40;99.90;;;;;;4139995;28;20036;-70
2024/01/20 02:07:50;;;;;;;38.17;17.55;;;0.50;99.90;;;;;;4158120;28;20172;-71
2024/01/20 02:09:50;;;;;;;37.37;17.10;;;0.50;99.90;;;;;;4140965;28;20025;-70
2024/01/20 02:11:52;;;;;;;38.55;17.25;;;0.50;99.90;;;;;;4158228;28;20555;-70
2024/01/20 02:13:54;;;;;;;36.00;16.60;;;0.40;99.90;;;;;;4159092;28;20060;-71
2024/01/20 02:15:55;;;;;;;35.23;16.63;;;0.50;99.90;;;;;;4157625;28;20033;-71
2024/01/20 02:17:55;;;;;;;36.15;18.05;;;0.40;99.90;;;;;;4155945;28;20060;-72
2024/01/20 02:19:56;;;;;;;34.90;15.85;;;0.50;99.90;;;;;;4156796;28;20118;-70
2024/01/20 02:21:58;;;;;;;34.63;16.35;;;0.50;99.90;;;;;;4158176;28;20455;-72
2024/01/20 02:23:59;;;;;;;34.42;15.70;;;0.50;99.90;;;;;;4159082;28;20491;-71
2024/01/20 02:26:00;;;;;;;32.95;15.75;;;0.40;99.90;;;;;;4138408;28;20070;-70
2024/01/20 02:28:01;;;;;;;35.60;15.90;;;0.40;99.90;;;;;;4156694;28;20033;-71
2024/01/20 02:30:01;;;;;;;33.00;15.60;;;0.50;99.90;;;;;;4157256;28;20483;-70
2024/01/20 02:32:02;;;;;;;44.45;17.35;;;0.50;99.90;;;;;;4158194;28;20458;-70
2024/01/20 02:34:03;;;;;;;36.70;15.88;;;0.50;99.90;;;;;;4158533;28;20041;-71
2024/01/20 02:36:04;;;;;;;32.92;15.75;;;0.50;99.90;;;;;;4156485;28;20025;-70
2024/01/20 02:38:04;;;;;;;34.10;15.40;;;0.40;99.90;;;;;;4139495;28;20456;-70
2024/01/20 02:40:07;;;;;;;34.50;15.02;;;0.50;99.90;;;;;;4156019;28;20060;-71
2024/01/20 02:42:08;;;;;;;34.60;16.13;;;0.50;99.90;;;;;;4157982;28;20116;-71
2024/01/20 02:44:09;;;;;;;32.70;15.40;;;0.50;99.90;;;;;;4155805;28;20043;-71
2024/01/20 02:46:09;;;;;;;33.72;15.70;;;0.50;99.90;;;;;;4156242;28;20113;-70
2024/01/20 02:48:10;;;;;;;33.90;16.67;;;0.60;99.90;;;;;;4139009;28;20407;-70
2024/01/20 02:50:11;;;;;;;34.25;15.75;;;0.50;99.90;;;;;;4153253;28;20459;-72
2024/01/20 02:52:12;;;;;;;37.85;17.33;;;0.50;99.90;;;;;;4155339;28;20669;-71
2024/01/20 02:54:12;;;;;;;38.60;15.98;;;0.50;99.90;;;;;;4158605;28;20029;-71
2024/01/20 02:56:13;;;;;;;32.15;14.52;;;0.50;99.90;;;;;;4156083;28;20502;-70
2024/01/20 02:58:14;;;;;;;34.30;14.93;;;0.50;99.90;;;;;;4156798;28;20083;-72
2024/01/20 03:00:15;;;;;;;27.25;13.55;;;0.50;99.90;;;;;;4152455;28;20168;-71
2024/01/20 03:02:15;;;;;;;35.85;14.77;;;0.50;99.90;;;;;;4124890;28;21628;-76
2024/01/20 03:04:16;;;;;;;39.10;18.35;;;0.50;99.90;;;;;;4158621;28;20042;-76
2024/01/20 03:06:16;;;;;;;40.10;18.67;;;0.50;99.90;;;;;;4155697;28;20236;-75
2024/01/20 03:08:17;;;;;;;35.63;17.73;;;0.50;99.90;;;;;;4156125;28;20380;-76
2024/01/20 03:10:18;;;;;;;37.28;16.98;;;0.50;99.90;;;;;;4155260;28;20041;-76
2024/01/20 03:12:18;;;;;;;30.63;15.23;;;0.50;99.90;;;;;;4158893;28;20033;-71
2024/01/20 03:14:19;;;;;;;36.22;16.88;;;0.50;99.90;;;;;;4157439;28;20034;-73
2024/01/20 03:16:19;;;;;;;38.15;17.77;;;0.50;99.90;;;;;;4155259;28;20113;-71
2024/01/20 03:18:20;;;;;;;40.88;17.67;;;0.40;99.90;;;;;;4156524;28;20053;-72
2024/01/20 03:20:20;;;;;;;37.30;16.95;;;0.50;99.90;;;;;;4155563;28;20044;-73
2024/01/20 03:22:21;;;;;;;35.20;16.85;;;0.50;99.90;;;;;;4156594;28;20033;-72
2024/01/20 03:24:22;;;;;;;41.83;17.63;;;0.50;99.90;;;;;;4158399;28;20394;-73
2024/01/20 03:26:22;;;;;;;39.72;18.70;;;0.50;99.90;;;;;;4156692;28;20042;-72
2024/01/20 03:28:23;;;;;;;39.65;17.85;;;0.50;99.90;;;;;;4156266;28;20026;-72
2024/01/20 03:30:24;;;;;;;34.72;16.63;;;0.40;99.90;;;;;;4153587;28;20068;-72
2024/01/20 03:32:24;;;;;;;40.97;18.67;;;0.50;99.90;;;;;;4157034;28;20144;-72
2024/01/20 03:34:25;;;;;;;33.70;16.95;;;0.50;99.90;;;;;;4156146;28;20499;-71
2024/01/20 03:36:26;;;;;;;33.53;14.90;;;0.40;99.90;;;;;;4120010;28;20608;-73
2024/01/20 03:38:26;;;;;;;38.83;17.80;;;0.50;99.90;;;;;;4154596;28;20030;-73
2024/01/20 03:40:27;;;;;;;33.95;16.67;;;0.50;99.90;;;;;;4155232;28;20034;-72
2024/01/20 03:42:28;;;;;;;36.33;16.70;;;0.50;99.90;;;;;;4157413;28;20052;-72
2024/01/20 03:44:29;;;;;;;37.35;16.77;;;0.50;99.90;;;;;;4157045;28;20029;-73
2024/01/20 03:46:29;;;;;;;32.95;16.60;;;0.50;99.90;;;;;;4155341;28;20088;-71
2024/01/20 03:48:31;;;;;;;31.92;16.05;;;0.50;99.90;;;;;;4154943;28;20029;-72
2024/01/20 03:50:32;;;;;;;33.53;16.45;;;0.50;99.90;;;;;;4156255;28;20046;-72
2024/01/20 03:52:32;;;;;;;33.13;16.33;;;0.50;99.90;;;;;;4152775;28;20049;-73
2024/01/20 03:54:33;;;;;;;40.47;18.27;;;0.50;99.90;;;;;;4157781;28;20395;-73
2024/01/20 03:56:33;;;;;;;34.65;15.82;;;0.50;99.90;;;;;;4152964;28;20499;-72
2024/01/20 03:58:36;;;;;;;35.50;17.00;;;0.50;99.90;;;;;;4157068;28;20021;-72
2024/01/20 04:00:36;;;;;;;31.58;15.43;;;0.50;99.90;;;;;;4158563;28;20075;-71
2024/01/20 04:02:37;;;;;;;32.53;15.75;;;0.60;99.90;;;;;;4161026;28;20034;-72
2024/01/20 04:04:38;;;;;;;33.90;16.75;;;0.50;99.90;;;;;;4158681;28;20048;-72
2024/01/20 04:06:38;;;;;;;29.23;15.20;;;0.60;99.90;;;;;;4158569;28;20376;-71
2024/01/20 04:08:39;;;;;;;35.35;16.35;;;0.60;99.90;;;;;;4160265;28;20018;-73
2024/01/20 04:10:40;;;;;;;35.88;17.40;;;0.60;99.90;;;;;;4156896;28;20029;-72
2024/01/20 04:12:41;;;;;;;37.22;16.13;;;0.60;99.90;;;;;;4160926;28;20140;-71
2024/01/20 04:14:41;;;;;;;37.28;17.73;;;0.60;99.90;;;;;;4160625;28;20057;-72
2024/01/20 04:16:42;;;;;;;36.47;16.98;;;0.70;99.90;;;;;;4158303;28;20487;-71
2024/01/20 04:18:43;;;;;;;35.72;16.92;;;0.70;99.90;;;;;;4157074;28;20029;-71
2024/01/20 04:20:43;;;;;;;31.70;15.40;;;0.60;99.90;;;;;;4159610;28;20074;-72
2024/01/20 04:22:44;;;;;;;30.65;14.98;;;0.70;99.90;;;;;;4161063;28;20030;-72
2024/01/20 04:24:44;;;;;;;33.50;16.67;;;0.70;99.90;;;;;;4157369;28;20129;-71
2024/01/20 04:26:45;;;;;;;33.95;16.77;;;0.70;99.90;;;;;;4157551;28;20364;-71
2024/01/20 04:28:45;;;;;;;31.33;14.27;;;0.70;99.90;;;;;;4159963;28;20470;-71
2024/01/20 04:30:46;;;;;;;32.95;16.00;;;0.80;99.90;;;;;;4159893;28;20439;-70
2024/01/20 04:32:47;;;;;;;39.42;17.77;;;0.70;99.90;;;;;;4160721;28;20038;-71
2024/01/20 04:34:47;;;;;;;37.58;17.92;;;0.80;99.90;;;;;;4160448;28;20422;-71
2024/01/20 04:36:48;;;;;;;32.33;15.75;;;0.80;99.90;;;;;;4154377;28;20424;-71
2024/01/20 04:38:49;;;;;;;31.48;15.73;;;0.70;99.90;;;;;;4141745;28;20499;-70
2024/01/20 04:40:50;;;;;;;30.25;14.85;;;0.70;99.90;;;;;;4160047;28;20025;-70
2024/01/20 04:42:51;;;;;;;29.67;15.10;;;0.70;99.90;;;;;;4160285;28;20033;-71
2024/01/20 04:44:51;;;;;;;34.25;17.40;;;0.70;99.90;;;;;;4160410;28;20388;-70
2024/01/20 04:46:52;;;;;;;37.03;15.20;;;0.70;99.90;;;;;;4158548;28;20388;-72
2024/01/20 04:48:53;;;;;;;32.05;15.00;;;0.70;99.90;;;;;;4159773;28;20479;-71
2024/01/20 04:50:53;;;;;;;30.58;15.40;;;0.70;99.90;;;;;;4156444;28;20046;-72
2024/01/20 04:52:54;;;;;;;29.73;13.95;;;0.70;99.90;;;;;;4160527;28;20112;-70
2024/01/20 04:54:55;;;;;;;31.25;15.05;;;0.70;99.90;;;;;;4159998;28;20049;-70
2024/01/20 04:56:57;;;;;;;37.47;15.98;;;0.70;99.90;;;;;;4157870;28;20034;-71
2024/01/20 04:58:57;;;;;;;29.55;14.45;;;0.70;99.90;;;;;;4157001;28;20033;-70
2024/01/20 05:00:58;;;;;;;28.42;14.82;;;0.70;99.90;;;;;;4141184;28;20434;-72
2024/01/20 05:02:59;;;;;;;32.58;16.50;;;0.70;99.90;;;;;;4153810;28;20049;-71
2024/01/20 05:04:59;;;;;;;32.25;16.05;;;0.70;99.90;;;;;;4157517;28;20037;-72
2024/01/20 05:07:00;;;;;;;31.85;15.70;;;0.70;99.90;;;;;;4157214;28;20087;-70
2024/01/20 05:09:02;;;;;;;30.13;15.73;;;0.70;99.90;;;;;;4140359;28;20446;-70
2024/01/20 05:11:03;;;;;;;39.58;16.73;;;0.70;99.90;;;;;;4158881;28;20490;-70
2024/01/20 05:13:03;;;;;;;34.42;16.63;;;0.70;99.90;;;;;;4141727;28;20030;-70
2024/01/20 05:15:10;;;;;;;33.72;16.30;;;0.60;99.90;;;;;;4137633;28;20026;-72
2024/01/20 05:17:11;;;;;;;33.55;16.30;;;0.60;99.90;;;;;;4141280;28;20165;-70
2024/01/20 05:19:12;;;;;;;35.10;18.02;;;0.60;99.90;;;;;;4158325;28;20041;-70
2024/01/20 05:21:14;;;;;;;34.78;16.63;;;0.70;99.90;;;;;;4159177;28;20119;-69
2024/01/20 05:23:14;;;;;;;33.25;15.68;;;0.60;99.90;;;;;;4142520;28;20148;-70
2024/01/20 05:25:15;;;;;;;33.05;16.48;;;0.60;99.90;;;;;;4159203;28;20080;-71
2024/01/20 05:27:16;;;;;;;34.67;16.70;;;0.70;99.90;;;;;;4158516;28;20026;-72
2024/01/20 05:29:17;;;;;;;33.08;16.52;;;0.70;99.90;;;;;;4158546;28;20502;-70
2024/01/20 05:31:18;;;;;;;31.73;15.82;;;0.70;99.90;;;;;;4158701;28;20052;-70
2024/01/20 05:33:18;;;;;;;34.08;16.90;;;0.70;99.90;;;;;;4160189;28;20478;-75
2024/01/20 05:35:19;;;;;;;36.20;17.77;;;0.70;99.90;;;;;;4158062;28;20038;-75
2024/01/20 05:37:20;;;;;;;34.38;16.88;;;0.70;99.90;;;;;;4155640;28;20042;-76
2024/01/20 05:39:20;;;;;;;31.63;16.23;;;0.60;99.90;;;;;;4159544;28;20479;-76
2024/01/20 05:41:21;;;;;;;31.13;15.38;;;0.70;99.90;;;;;;4152886;28;20458;-74
2024/01/20 05:43:21;;;;;;;38.78;17.85;;;0.70;99.90;;;;;;4163238;28;20420;-76
2024/01/20 05:45:22;;;;;;;34.83;17.83;;;0.70;99.90;;;;;;4120261;28;20386;-75
2024/01/20 05:47:23;;;;;;;38.40;18.02;;;0.70;99.90;;;;;;4153181;28;20032;-76
2024/01/20 05:49:23;;;;;;;29.85;15.13;;;0.70;99.90;;;;;;4153913;28;20475;-75
2024/01/20 05:51:24;;;;;;;31.77;16.08;;;0.70;99.90;;;;;;4139272;28;20038;-77
2024/01/20 05:53:24;;;;;;;34.88;15.93;;;0.70;99.90;;;;;;4156984;28;20372;-77
2024/01/20 05:55:25;;;;;;;34.28;16.90;;;0.80;99.90;;;;;;4157126;28;20126;-77
2024/01/20 05:57:25;;;;;;;32.55;14.80;;;0.80;99.90;;;;;;4155312;28;20184;-77
2024/01/20 05:59:26;;;;;;;40.80;17.88;;;0.80;99.90;;;;;;4160717;28;20026;-77
2024/01/20 06:01:27;;;;;;;30.70;15.23;;;0.70;99.90;;;;;;4162814;28;20029;-73
2024/01/20 06:03:28;;;;;;;33.78;16.10;;;0.70;99.90;;;;;;4164768;28;20056;-75
2024/01/20 06:05:28;;;;;;;33.97;17.30;;;0.70;99.90;;;;;;4160275;28;20037;-78
2024/01/20 06:07:29;;;;;;;33.00;17.23;;;0.70;99.90;;;;;;4168112;28;20403;-77
2024/01/20 06:09:29;;;;;;;31.75;15.77;;;0.60;99.90;;;;;;4142288;28;20034;-75
2024/01/20 06:11:30;;;;;;;33.17;16.60;;;0.70;99.90;;;;;;4156173;28;20034;-75
2024/01/20 06:13:31;;;;;;;29.90;16.02;;;0.70;99.90;;;;;;4156445;28;20034;-75
2024/01/20 06:15:32;;;;;;;34.25;16.65;;;0.70;99.90;;;;;;4153323;28;20038;-76
2024/01/20 06:17:32;;;;;;;31.25;15.38;;;0.60;99.90;;;;;;4139800;28;20472;-68
2024/01/20 06:19:33;;;;;;;38.13;17.55;;;0.60;99.90;;;;;;4155072;28;20030;-76
2024/01/20 06:21:33;;;;;;;33.45;16.65;;;0.60;99.90;;;;;;4151223;28;20502;-76
2024/01/20 06:23:34;;;;;;;39.05;18.73;;;0.70;99.90;;;;;;4138480;28;20152;-76
2024/01/20 06:25:35;;;;;;;33.75;17.08;;;0.60;99.90;;;;;;4155814;28;20037;-76
2024/01/20 06:27:35;;;;;;;39.08;17.88;;;0.70;99.90;;;;;;4154748;28;21296;-76
2024/01/20 06:29:45;;;;;;;34.75;17.02;;;0.70;99.90;;;;;;4142368;28;20419;-77
2024/01/20 06:31:45;;;;;;;32.72;16.75;;;0.60;99.90;;;;;;4137315;28;20109;-76
2024/01/20 06:33:47;;;;;;;36.13;17.50;;;0.70;99.90;;;;;;4154857;28;20037;-75
2024/01/20 06:35:47;;;;;;;41.05;18.65;;;0.60;99.90;;;;;;4153071;28;20426;-75
2024/01/20 06:37:48;;;;;;;34.72;16.42;;;0.60;99.90;;;;;;4156484;28;20041;-76
2024/01/20 06:39:51;;;;;;;37.03;16.92;;;0.60;99.90;;;;;;4151088;28;20399;-75
2024/01/20 06:41:52;;;;;;;41.40;19.17;;;0.60;99.90;;;;;;4149647;28;20033;-76
2024/01/20 06:43:56;;;;;;;35.70;15.90;;;0.70;99.90;;;;;;4151185;28;20042;-74
2024/01/20 06:45:57;;;;;;;32.53;16.98;;;0.70;99.90;;;;;;4153023;28;20562;-74
2024/01/20 06:47:58;;;;;;;33.60;16.53;;;0.70;99.90;;;;;;4153779;28;20049;-73
2024/01/20 06:50:00;;;;;;;36.33;17.25;;;0.60;99.90;;;;;;4154820;28;20489;-74
2024/01/20 06:52:00;;;;;;;34.53;17.02;;;0.60;99.90;;;;;;4153489;28;20138;-74
2024/01/20 06:54:02;;;;;;;38.25;18.52;;;0.60;99.90;;;;;;4157622;28;20041;-75
2024/01/20 06:56:04;;;;;;;35.97;17.25;;;0.60;99.90;;;;;;4135680;28;20069;-75
2024/01/20 06:58:04;;;;;;;36.13;17.15;;;0.60;99.90;;;;;;4154695;28;20549;-74
2024/01/20 07:00:08;;;;;;;35.70;16.65;;;0.60;99.90;;;;;;4151180;28;20033;-74
2024/01/20 07:02:08;;;;;;;35.50;17.25;;;0.60;99.90;;;;;;4153691;28;20113;-75
2024/01/20 07:04:09;;;;;;;37.88;16.98;;;0.70;99.90;;;;;;4137209;28;20084;-74
2024/01/20 07:06:10;;;;;;;34.88;16.95;;;0.70;99.90;;;;;;4157412;28;20037;-74
2024/01/20 07:08:10;;;;;;;32.33;16.25;;;0.70;99.90;;;;;;4156029;28;20029;-74
2024/01/20 07:10:11;;;;;;;35.33;15.55;;;0.70;99.90;;;;;;4156328;28;20048;-74
2024/01/20 07:12:12;;;;;;;36.25;17.48;;;0.70;99.90;;;;;;4158275;28;20107;-74
2024/01/20 07:14:13;;;;;;;36.97;17.90;;;0.70;99.90;;;;;;4158066;28;20048;-74
2024/01/20 07:16:15;;;;;;;36.53;17.13;;;0.70;99.90;;;;;;4154476;28;20460;-74
2024/01/20 07:18:15;;;;;;;37.80;18.33;;;0.60;99.90;;;;;;4156691;28;20033;-75
2024/01/20 07:20:16;;;;;;;34.20;16.77;;;0.60;99.90;;;;;;4153430;28;20486;-74
2024/01/20 07:22:17;;;;;;;32.15;16.60;;;0.70;99.90;;;;;;4157927;28;20647;-75
2024/01/20 07:24:17;;;;;;;33.78;17.00;;;0.70;99.90;;;;;;4153201;28;20496;-74
2024/01/20 07:26:18;;;;;;;36.05;17.40;;;0.70;99.90;;;;;;4158213;28;20411;-74
2024/01/20 07:28:18;;;;;;;32.58;15.98;;;0.50;99.90;;;;;;4141509;28;20030;-74
2024/01/20 07:30:19;;;;;;;34.58;16.20;;;0.60;99.90;;;;;;4155276;28;20030;-74
2024/01/20 07:32:19;;;;;;;37.67;17.42;;;0.60;99.90;;;;;;4157718;28;20038;-74
2024/01/20 07:34:20;;;;;;;30.85;16.27;;;0.60;99.90;;;;;;4158101;28;20078;-75
2024/01/20 07:36:21;;;;;;;33.90;16.42;;;0.60;99.90;;;;;;4142031;28;20026;-72
2024/01/20 07:38:21;;;;;;;32.15;15.95;;;0.50;99.90;;;;;;4156797;28;20073;-71
2024/01/20 07:40:22;;;;;;;39.42;17.55;;;0.50;99.90;;;;;;4142143;28;20034;-71
2024/01/20 07:42:22;;;;;;;34.88;17.45;;;0.50;99.90;;;;;;4161966;28;20037;-71
2024/01/20 07:44:23;;;;;;;32.90;16.10;;;0.50;99.90;;;;;;4161179;28;20490;-72
2024/01/20 07:46:23;;;;;;;35.65;16.77;;;0.40;99.90;;;;;;4158118;28;20135;-70
2024/01/20 07:48:26;;;;;;;34.58;16.08;;;0.40;99.90;;;;;;4141558;28;20422;-71
2024/01/20 07:50:27;;;;;;;;;;;0.40;99.90;;;;;;4158230;28;20411;-71
2024/01/20 07:52:27;;;;;;;37.35;16.42;;;0.40;99.90;;;;;;4158843;28;19927;-71
2024/01/20 07:54:28;;;;;;;35.50;16.48;;;0.50;99.90;;;;;;4159944;28;20483;-74
2024/01/20 07:56:28;;;;;;;37.30;16.75;;;0.40;99.90;;;;;;4157746;28;20560;-72
2024/01/20 07:58:29;;;;;;;30.77;14.77;;;0.40;99.90;;;;;;4160101;28;20505;-71
2024/01/20 08:00:30;;;;;;;36.58;17.25;;;0.40;99.90;;;;;;4160113;28;20527;-72
2024/01/20 08:02:30;;;;;;;33.10;15.65;;;0.40;99.90;;;;;;4160915;28;20037;-71
2024/01/20 08:04:31;;;;;;;35.13;15.43;;;0.30;99.90;;;;;;4161410;28;20045;-72
2024/01/20 08:06:31;;;;;;;36.05;15.07;;;0.30;99.90;;;;;;4159587;28;20658;-71
2024/01/20 08:08:32;;;;;;;34.92;15.57;;;0.30;99.90;;;;;;4160087;28;20048;-71
2024/01/20 08:10:33;;;;;;;29.73;14.27;;;0.30;99.90;;;;;;4155921;28;20171;-71
2024/01/20 08:12:33;;;;;;;35.53;16.75;;;0.20;99.90;;;;;;4162453;28;20123;-71
2024/01/20 08:14:34;;;;;;;38.38;17.40;;;0.20;99.90;;;;;;4148065;28;20033;-71
2024/01/20 08:16:35;;;;;;;33.45;16.40;;;0.20;99.90;;;;;;4159696;28;20068;-71
2024/01/20 08:18:35;;;;;;;32.92;15.95;;;0.30;99.90;;;;;;4158995;28;20047;-70
2024/01/20 08:20:36;;;;;;;39.50;16.67;;;0.30;99.90;;;;;;4160843;28;20038;-71
2024/01/20 08:22:37;;;;;;;41.83;18.25;;;0.30;99.90;;;;;;4157086;28;20056;-70
2024/01/20 08:24:37;;;;;;;38.78;17.45;;;0.30;99.90;;;;;;4161061;28;20502;-71
2024/01/20 08:26:38;;;;;;;40.75;18.38;;;0.20;99.90;;;;;;4158790;28;20038;-72
2024/01/20 08:28:38;;;;;;;37.50;16.92;;;0.30;99.90;;;;;;4159911;28;20037;-71
2024/01/20 08:30:39;;;;;;;39.08;18.10;;;0.30;99.90;;;;;;4140622;28;20487;-71
2024/01/20 08:32:40;;;;;;;40.80;18.65;;;0.20;99.90;;;;;;4161870;28;20036;-71
2024/01/20 08:34:40;;;;;;;34.42;15.52;;;0.30;99.90;;;;;;4141572;28;20112;-71
2024/01/20 08:36:41;;;;;;;38.17;17.88;;;0.20;99.90;;;;;;4141955;28;20026;-72
2024/01/20 08:38:41;;;;;;;40.72;18.00;;;0.20;99.90;;;;;;4160316;28;20032;-71
2024/01/20 08:40:42;;;;;;;41.83;18.15;;;0.20;99.90;;;;;;4143235;28;20030;-70
2024/01/20 08:42:43;;;;;;;38.17;17.27;;;0.10;99.90;;;;;;4162011;28;20426;-70
2024/01/20 08:44:43;;;;;;;38.72;17.92;;;0.10;99.90;;;;;;4158292;28;20453;-72
2024/01/20 08:46:45;;;;;;;38.38;17.63;;;0.20;99.90;;;;;;4156044;28;20526;-71
2024/01/20 08:48:45;;;;;;;40.03;18.58;;;0.20;99.90;;;;;;4157529;28;20119;-71
2024/01/20 08:50:46;;;;;;;41.25;18.75;;;0.10;99.90;;;;;;4160588;28;20034;-72
2024/01/20 08:52:47;;;;;;;37.63;17.38;;;0.00;99.90;;;;;;4155105;28;20027;-72
2024/01/20 08:54:47;;;;;;;39.13;17.45;;;0.00;99.90;;;;;;4147439;28;20064;-73
2024/01/20 08:56:49;;;;;;;35.20;15.80;;;0.00;99.90;;;;;;4151960;28;20037;-72
2024/01/20 08:58:49;;;;;;;36.42;17.20;;;0.00;99.90;;;;;;4155097;28;20129;-71
2024/01/20 09:00:50;;;;;;;35.13;17.92;;;-0.10;99.90;;;;;;4156287;28;20028;-74
2024/01/20 09:02:50;;;;;;;42.25;18.67;;;0.00;99.90;;;;;;4158731;28;20041;-75
2024/01/20 09:04:51;;;;;;;39.17;17.30;;;0.00;99.90;;;;;;4158928;28;20025;-75
2024/01/20 09:06:52;;;;;;;34.42;15.57;;;0.00;99.90;;;;;;4155988;28;20483;-75
2024/01/20 09:08:52;;;;;;;33.90;16.40;;;-0.10;99.90;;;;;;4160604;28;20025;-75
2024/01/20 09:10:53;;;;;;;35.45;15.57;;;-0.10;99.90;;;;;;4160037;28;20033;-75
2024/01/20 09:12:53;;;;;;;30.98;14.60;;;-0.10;99.90;;;;;;4157993;28;20117;-73
2024/01/20 09:14:55;;;;;;;27.98;13.13;;;-0.10;99.90;;;;;;4140621;28;20395;-76
2024/01/20 09:16:55;;;;;;;29.48;13.25;;;-0.10;99.90;;;;;;4154301;28;20452;-75
2024/01/20 09:18:56;;;;;;;29.08;14.02;;;-0.10;99.90;;;;;;4157061;28;20030;-75
2024/01/20 09:20:57;;;;;;;26.70;13.73;;;-0.10;99.90;;;;;;4155136;28;20034;-76
2024/01/20 09:22:57;;;;;;;25.42;13.07;;;-0.10;99.90;;;;;;4157562;28;20087;-75
2024/01/20 09:24:58;;;;;;;27.75;12.77;;;-0.10;99.90;;;;;;4156024;28;20140;-75
2024/01/20 09:26:59;;;;;;;29.48;13.25;;;-0.20;99.90;;;;;;4157973;28;20045;-75
2024/01/20 09:29:00;;;;;;;26.75;13.18;;;-0.20;99.90;;;;;;4160752;28;20083;-74
2024/01/20 09:31:00;;;;;;;21.92;11.82;;;-0.20;99.90;;;;;;4155011;28;20468;-76
2024/01/20 09:33:05;;;;;;;25.52;12.75;;;-0.10;99.90;;;;;;4158899;28;20553;-75
2024/01/20 09:35:05;;;;;;;22.50;11.75;;;-0.10;99.90;;;;;;4160123;28;20499;-75
2024/01/20 09:37:06;;;;;;;24.45;12.82;;;-0.10;99.90;;;;;;4156706;28;20030;-75
2024/01/20 09:39:11;;;;;;;23.85;12.02;;;0.00;99.90;;;;;;4160956;28;20026;-76
2024/01/20 09:41:13;;;;;;;22.85;12.13;;;0.10;99.90;;;;;;4156637;28;20033;-76
2024/01/20 09:43:14;;;;;;;25.23;13.40;;;0.20;99.90;;;;;;4158898;28;20025;-75
2024/01/20 09:45:15;;;;;;;22.73;12.73;;;0.30;99.90;;;;;;4157976;28;20542;-75
2024/01/20 09:47:16;;;;;;;28.35;13.77;;;0.40;99.90;;;;;;4159725;28;20050;-75
2024/01/20 09:49:16;;;;;;;22.65;12.30;;;0.60;99.90;;;;;;4139490;28;20101;-70
2024/01/20 09:51:24;;;;;;;23.65;12.20;;;0.70;99.90;;;;;;4160831;28;20040;-75
2024/01/20 09:53:25;;;;;;;22.60;12.40;;;0.80;99.90;;;;;;4156513;28;20114;-75
2024/01/20 09:55:27;;;;;;;27.10;13.45;;;1.00;99.90;;;;;;4159125;28;20092;-73
2024/01/20 09:57:28;;;;;;;26.85;13.45;;;1.10;99.90;;;;;;4159915;28;20037;-75
2024/01/20 09:59:30;;;;;;;22.98;11.98;;;1.20;99.90;;;;;;4159030;28;20033;-75
2024/01/20 10:01:31;;;;;;;22.70;12.77;;;1.30;99.90;;;;;;4158098;28;20026;-75
2024/01/20 10:03:34;;;;;;;26.17;12.45;;;1.40;99.90;;;;;;4160212;28;20037;-75
2024/01/20 10:05:35;;;;;;;24.50;12.38;;;1.40;99.90;;;;;;4156822;28;20033;-75
2024/01/20 10:07:36;;;;;;;30.00;12.40;;;1.50;99.90;;;;;;4158165;28;20372;-74
2024/01/20 10:09:37;;;;;;;25.83;13.60;;;1.60;99.90;;;;;;4156290;28;20395;-74
2024/01/20 10:11:38;;;;;;;24.80;12.40;;;1.60;99.90;;;;;;4158761;28;20511;-76
2024/01/20 10:13:38;;;;;;;24.42;11.75;;;1.60;99.90;;;;;;4157498;28;20060;-70
2024/01/20 10:15:39;;;;;;;25.20;12.57;;;1.60;99.90;;;;;;4157560;28;20033;-71
2024/01/20 10:17:39;;;;;;;23.95;12.35;;;1.60;99.90;;;;;;4156487;28;20484;-71
2024/01/20 10:19:40;;;;;;;23.38;11.88;;;1.70;99.90;;;;;;4158603;28;20052;-71